Terminal Aerodrome Forecast
Issued by NWS

Home | Current Version | Previous Version | Text Only | Print | Product List | Glossary On
Versions: 1 2 3 4 5 6 7 8 9 10 11 12 13 14 15 16 17 18 19 20 21 22 23 24 25 26 27 28 29
000
FTUS44 KEWX 220553
TAFSSF
TAF
KSSF 220553Z 2206/2306 09005KT P6SM OVC012
     FM221300 13007KT P6SM SCT015 BKN025
     FM221600 13010KT P6SM SCT040=

USA.gov is the U.S. government's official web portal to all federal, state and local government web resources and services.